首页
METAR-TAF:

METAR-TAF

机场 :

Toussus-le-Noble, 法国

纬度: 48-46N, 经度: 002-06E, 海拔: 164米

当前天气观测

该预报发布于37分钟前的07:30 UTC
风速3节,风向西北
温度 5°C
湿度 93%
气压 1009 hPa
能見度: 9000
阴天层高于3500英尺

METAR: LFPN 170730Z AUTO 32003KT 9000 OVC035 05/04 Q1009 TEMPO 3000 BR BKN004

时间: 09:07 (08:07 UTC)

预报

该预报发布于3小时和7分钟前的05:00 UTC
预报有效从17日的 06点(UTC)到 17日的 15点(UTC)
风速2节,风向多变
能見度: 8000
多云层高于3000英尺
几率 40% :
短暂存在
从 17日的 06点(UTC)到 17日的 10点(UTC)
能見度: 3000
多云层高于400英尺
轻雾
几率 30% :
短暂存在
从 17日的 06点(UTC)到 17日的 09点(UTC)
能見度: 0800
多云层高于200英尺
成为
从 17日的 09点(UTC)到 17日的 11点(UTC)
风速5节,风向北转东北
多云层高于1200英尺

TAF: LFPN 170500Z 1706/1715 VRB02KT 8000 BKN030 PROB40 TEMPO 1706/1710 3000 BR BKN004 PROB30 TEMPO 1706/1709 0800 FG BKN002 BECMG 1709/1711 02005KT BKN012

超过4000个机场的气象观测和天气预报(METAR&TAF报告)。

可查询的气象台以黄色和红色小点在地图上表示。

将鼠标移到小点上方,可查看气象台名称。

然后点击查看天气观测和预报。

如需切换地图:点击带黑十字的绿色按钮放大地图;点击带横线的绿色按钮缩小地图;或者点击绿色箭头查看邻近地区的地图。


METAR-TAF: